Time;durP1;ratioP1;P1;durP2;ratioP2;P2;SDS_P1;SDS_P2;PMS_P1;PMS_P2;Temp;Humidity;BMP_temperature;BMP_pressure;BME280_temperature;BME280_humidity;BME280_pressure;Samples;Min_cycle;Max_cycle;Signal;HPM_P1;HPM_P2
2023/10/09 00:01:13;;;;;;;16.73;11.57;;;;;;;;;;5048277;28;20484;-75
2023/10/09 00:03:45;;;;;;;16.58;11.63;;;;;;;;;;5063267;28;20051;-75
2023/10/09 00:06:13;;;;;;;20.17;11.57;;;;;;;;;;5070551;28;20490;-76
2023/10/09 00:08:44;;;;;;;20.50;12.23;;;;;;;;;;5062921;28;20029;-75
2023/10/09 00:11:16;;;;;;;19.77;12.07;;;;;;;;;;5062133;28;20028;-76
2023/10/09 00:13:48;;;;;;;16.65;11.27;;;;;;;;;;5062504;28;20385;-75
2023/10/09 00:16:15;;;;;;;18.08;12.15;;;;;;;;;;5061950;28;20063;-76
2023/10/09 00:18:46;;;;;;;17.98;10.40;;;;;;;;;;5062212;28;20472;-75
2023/10/09 00:21:15;;;;;;;21.02;12.70;;;;;;;;;;5046416;28;20532;-75
2023/10/09 00:23:41;;;;;;;20.17;11.63;;;;;;;;;;5043908;28;20021;-75
2023/10/09 00:28:43;;;;;;;18.33;11.88;;;;;;;;;;5061078;28;20039;-76
2023/10/09 00:31:14;;;;;;;20.38;12.68;;;;;;;;;;5066742;28;20024;-76
2023/10/09 00:33:40;;;;;;;22.40;13.80;;;;;;;;;;5065717;28;20060;-75
2023/10/09 00:36:09;;;;;;;20.98;13.45;;;;;;;;;;5046602;28;20755;-75
2023/10/09 00:38:35;;;;;;;19.80;12.77;;;;;;;;;;5067676;28;20115;-75
2023/10/09 00:41:42;;;;;;;21.73;13.07;;;;;;;;;;5057454;28;20619;-78
2023/10/09 00:43:52;;;;;;;20.50;13.27;;;;;;;;;;5058174;28;20041;-78
2023/10/09 00:48:47;;;;;;;18.75;11.38;;;;;;;;;;5065796;28;20644;-78
2023/10/09 00:51:18;;;;;;;20.45;13.07;;;;;;;;;;5059215;28;20033;-78
2023/10/09 00:53:50;;;;;;;19.90;12.65;;;;;;;;;;5049321;28;20436;-78
2023/10/09 00:56:28;;;;;;;18.70;12.07;;;;;;;;;;5064926;28;20024;-78
2023/10/09 00:58:59;;;;;;;19.17;12.60;;;;;;;;;;5063476;28;20032;-78
2023/10/09 01:01:41;;;;;;;18.77;11.88;;;;;;;;;;5063182;28;20033;-78
2023/10/09 01:04:10;;;;;;;18.95;12.07;;;;;;;;;;5066207;28;20032;-78
2023/10/09 01:06:43;;;;;;;18.42;11.85;;;;;;;;;;5047803;28;20384;-78
2023/10/09 01:09:14;;;;;;;20.55;11.82;;;;;;;;;;5042744;28;20066;-78
2023/10/09 01:11:49;;;;;;;17.90;10.80;;;;;;;;;;5061128;28;20123;-78
2023/10/09 01:14:21;;;;;;;16.65;11.48;;;;;;;;;;5044871;28;20037;-78
2023/10/09 01:16:47;;;;;;;17.97;11.40;;;;;;;;;;5044464;28;20035;-78
2023/10/09 01:19:19;;;;;;;17.33;11.35;;;;;;;;;;5063844;28;20028;-78
2023/10/09 01:21:45;;;;;;;19.40;11.85;;;;;;;;;;5042766;28;20029;-78
2023/10/09 01:24:10;;;;;;;17.00;11.98;;;;;;;;;;5068249;28;20051;-78
2023/10/09 01:26:44;;;;;;;17.70;11.77;;;;;;;;;;5061184;28;20117;-79
2023/10/09 01:29:14;;;;;;;16.85;11.02;;;;;;;;;;5059640;28;20076;-78
2023/10/09 01:31:46;;;;;;;16.02;9.82;;;;;;;;;;5047218;28;20085;-78
2023/10/09 01:34:15;;;;;;;17.02;11.43;;;;;;;;;;5065689;28;20028;-78
2023/10/09 01:36:41;;;;;;;16.70;11.85;;;;;;;;;;5065979;28;20454;-78
2023/10/09 01:39:28;;;;;;;16.38;11.05;;;;;;;;;;5066012;28;20021;-78
2023/10/09 01:42:01;;;;;;;16.30;11.38;;;;;;;;;;5062773;28;20492;-78
2023/10/09 01:44:29;;;;;;;14.20;10.20;;;;;;;;;;5048478;28;20025;-78
2023/10/09 01:46:57;;;;;;;14.85;9.07;;;;;;;;;;5060611;28;20083;-75
2023/10/09 01:49:29;;;;;;;18.77;10.35;;;;;;;;;;5056284;28;20636;-86
2023/10/09 01:51:54;;;;;;;19.55;11.18;;;;;;;;;;5036531;28;20068;-85
2023/10/09 01:54:36;;;;;;;15.35;12.02;;;;;;;;;;5054159;28;20560;-83
2023/10/09 01:57:11;;;;;;;17.60;11.75;;;;;;;;;;5053829;28;20033;-83
2023/10/09 01:59:38;;;;;;;16.60;10.75;;;;;;;;;;5038245;28;20039;-86
2023/10/09 02:02:25;;;;;;;14.77;9.48;;;;;;;;;;5038414;28;20415;-82
2023/10/09 02:05:06;;;;;;;14.98;10.30;;;;;;;;;;5038703;28;20043;-85
2023/10/09 02:07:40;;;;;;;15.13;9.88;;;;;;;;;;5040873;28;20432;-82
2023/10/09 02:10:11;;;;;;;12.65;9.52;;;;;;;;;;5067467;28;20028;-85
2023/10/09 02:12:37;;;;;;;13.90;9.80;;;;;;;;;;5049045;28;20035;-85
2023/10/09 02:15:15;;;;;;;15.35;10.18;;;;;;;;;;5048197;28;20024;-86
2023/10/09 02:17:51;;;;;;;16.60;10.30;;;;;;;;;;5062646;28;20040;-82
2023/10/09 02:20:18;;;;;;;14.10;9.48;;;;;;;;;;5067073;28;20025;-82
2023/10/09 02:22:43;;;;;;;15.82;9.70;;;;;;;;;;5063350;28;20115;-86
2023/10/09 02:25:11;;;;;;;14.43;9.52;;;;;;;;;;5063204;28;20101;-86
2023/10/09 02:27:46;;;;;;;13.85;9.18;;;;;;;;;;5057979;28;20550;-86
2023/10/09 02:30:26;;;;;;;13.27;8.35;;;;;;;;;;5060930;28;20112;-84
2023/10/09 02:32:53;;;;;;;12.50;7.47;;;;;;;;;;5057891;28;20041;-85
2023/10/09 02:35:28;;;;;;;11.40;7.55;;;;;;;;;;5045307;28;20552;-85
2023/10/09 02:37:53;;;;;;;11.40;8.82;;;;;;;;;;5046557;28;20050;-83
2023/10/09 02:40:23;;;;;;;15.27;9.35;;;;;;;;;;5055234;28;20419;-86
2023/10/09 02:42:49;;;;;;;14.02;9.25;;;;;;;;;;5046685;28;20111;-83
2023/10/09 02:45:16;;;;;;;12.25;8.73;;;;;;;;;;5066461;28;20121;-86
2023/10/09 02:47:42;;;;;;;13.50;9.45;;;;;;;;;;5061990;28;20405;-83
2023/10/09 02:50:19;;;;;;;11.25;7.47;;;;;;;;;;5046269;28;20112;-86
2023/10/09 02:52:47;;;;;;;11.00;7.80;;;;;;;;;;5064145;28;20024;-83
2023/10/09 02:55:24;;;;;;;10.45;7.32;;;;;;;;;;5062729;28;20361;-85
2023/10/09 02:57:52;;;;;;;12.82;7.85;;;;;;;;;;5065252;28;20480;-84
2023/10/09 03:00:29;;;;;;;13.07;7.97;;;;;;;;;;5065112;28;20130;-75
2023/10/09 03:02:58;;;;;;;13.32;9.73;;;;;;;;;;5049533;28;20032;-77
2023/10/09 03:05:23;;;;;;;11.52;7.90;;;;;;;;;;5064382;28;20803;-76
2023/10/09 03:07:51;;;;;;;13.27;8.95;;;;;;;;;;5059493;28;20036;-79
2023/10/09 03:10:17;;;;;;;13.52;8.85;;;;;;;;;;5058853;28;20484;-75
2023/10/09 03:12:43;;;;;;;12.25;9.15;;;;;;;;;;5061917;28;21430;-76
2023/10/09 03:15:09;;;;;;;13.63;8.73;;;;;;;;;;5059450;28;20021;-76
2023/10/09 03:17:34;;;;;;;16.90;9.90;;;;;;;;;;5060860;28;20145;-78
2023/10/09 03:20:12;;;;;;;13.27;9.48;;;;;;;;;;5036655;28;20024;-76
2023/10/09 03:22:38;;;;;;;14.98;9.45;;;;;;;;;;5058610;28;20551;-76
2023/10/09 03:25:11;;;;;;;12.60;8.45;;;;;;;;;;5057039;28;20036;-77
2023/10/09 03:27:38;;;;;;;13.02;8.30;;;;;;;;;;5059361;28;20460;-75
2023/10/09 03:30:05;;;;;;;13.25;8.55;;;;;;;;;;5055852;28;20021;-79
2023/10/09 03:32:30;;;;;;;16.83;8.85;;;;;;;;;;5038051;28;20070;-75
2023/10/09 03:34:59;;;;;;;15.93;9.27;;;;;;;;;;5060668;28;20042;-75
2023/10/09 03:37:34;;;;;;;13.90;9.52;;;;;;;;;;5054976;28;20416;-75
2023/10/09 03:40:00;;;;;;;13.48;8.50;;;;;;;;;;5039559;28;20086;-75
2023/10/09 03:42:25;;;;;;;12.50;8.10;;;;;;;;;;5061928;28;20431;-75
2023/10/09 03:44:53;;;;;;;12.27;8.50;;;;;;;;;;5047763;28;20028;-75
2023/10/09 03:47:27;;;;;;;13.88;7.95;;;;;;;;;;5045178;28;20025;-76
2023/10/09 03:49:53;;;;;;;10.30;7.10;;;;;;;;;;5065289;28;20024;-75
2023/10/09 03:52:19;;;;;;;16.33;8.80;;;;;;;;;;5047506;28;20021;-76
2023/10/09 03:54:46;;;;;;;14.43;8.65;;;;;;;;;;5060143;28;20021;-78
2023/10/09 03:57:18;;;;;;;14.50;8.55;;;;;;;;;;5060064;28;20500;-76
2023/10/09 03:59:46;;;;;;;14.77;8.65;;;;;;;;;;5038392;28;20483;-75
2023/10/09 04:02:12;;;;;;;11.57;7.43;;;;;;;;;;5058019;28;20031;-75
2023/10/09 04:04:37;;;;;;;13.30;8.80;;;;;;;;;;5074004;28;20102;-75
2023/10/09 04:07:03;;;;;;;14.32;7.88;;;;;;;;;;5040810;28;20496;-76
2023/10/09 04:09:29;;;;;;;14.77;9.05;;;;;;;;;;5058999;28;20020;-78
2023/10/09 04:15:00;;;;;;;16.30;9.65;;;;;;;;;;5058791;28;20040;-78
2023/10/09 04:22:49;;;;;;;18.05;10.52;;;;;;;;;;5057600;28;20043;-79
2023/10/09 04:25:15;;;;;;;16.15;9.82;;;;;;;;;;5043556;28;20058;-78
2023/10/09 04:27:41;;;;;;;14.57;9.55;;;;;;;;;;5039390;28;20045;-79
2023/10/09 04:30:07;;;;;;;15.07;9.60;;;;;;;;;;5057260;28;20027;-79
2023/10/09 04:32:34;;;;;;;15.88;9.73;;;;;;;;;;5057669;28;20041;-79
2023/10/09 04:37:52;;;;;;;17.08;10.13;;;;;;;;;;5061838;28;20035;-78
2023/10/09 04:43:06;;;;;;;14.75;9.45;;;;;;;;;;5057874;28;20514;-78
2023/10/09 04:48:32;;;;;;;15.10;9.80;;;;;;;;;;5055812;28;20031;-79
2023/10/09 04:53:47;;;;;;;15.77;10.10;;;;;;;;;;5056088;28;20034;-79
2023/10/09 04:56:15;;;;;;;16.80;10.13;;;;;;;;;;5051919;28;20035;-78
2023/10/09 04:58:41;;;;;;;15.85;10.20;;;;;;;;;;5036072;28;20429;-79
2023/10/09 05:01:12;;;;;;;14.90;9.57;;;;;;;;;;5055421;28;20039;-78
2023/10/09 05:08:54;;;;;;;13.95;9.05;;;;;;;;;;5017256;28;20480;-78
2023/10/09 05:11:34;;;;;;;13.55;8.38;;;;;;;;;;5055623;28;20020;-79
2023/10/09 05:14:13;;;;;;;17.30;10.70;;;;;;;;;;5037969;28;20388;-78
2023/10/09 05:16:53;;;;;;;15.57;10.07;;;;;;;;;;5060723;28;20039;-81
2023/10/09 05:22:16;;;;;;;17.50;10.50;;;;;;;;;;5057448;28;20089;-78
2023/10/09 05:24:47;;;;;;;20.75;10.95;;;;;;;;;;5056507;28;20785;-75
2023/10/09 05:27:17;;;;;;;17.27;11.13;;;;;;;;;;5042954;28;20020;-76
2023/10/09 05:29:59;;;;;;;16.27;10.48;;;;;;;;;;5059209;28;20024;-75
2023/10/09 05:32:35;;;;;;;18.67;11.02;;;;;;;;;;5042263;28;20319;-77
2023/10/09 05:37:42;;;;;;;15.40;10.27;;;;;;;;;;5059804;28;20020;-78
2023/10/09 05:42:43;;;;;;;17.77;11.00;;;;;;;;;;5066340;28;20060;-77
2023/10/09 06:04:49;;;;;;;16.52;10.63;;;;;;;;;;5056979;28;20484;-80
2023/10/09 06:07:22;;;;;;;18.00;10.45;;;;;;;;;;5060955;28;20419;-80
2023/10/09 06:09:52;;;;;;;;;;;;;;;;;;5064106;28;20111;-80
2023/10/09 06:12:33;;;;;;;21.08;10.60;;;;;;;;;;5066662;28;20356;-80
2023/10/09 06:21:08;;;;;;;17.55;11.13;;;;;;;;;;4979710;28;20622;-80
2023/10/09 06:26:24;;;;;;;15.70;10.40;;;;;;;;;;5057900;28;20039;-80
2023/10/09 06:29:13;;;;;;;20.85;10.95;;;;;;;;;;5064228;28;20045;-80
2023/10/09 06:31:57;;;;;;;15.52;10.25;;;;;;;;;;5061087;28;20123;-85
2023/10/09 06:34:24;;;;;;;20.17;10.05;;;;;;;;;;5063735;28;20044;-83
2023/10/09 06:36:53;;;;;;;16.60;10.45;;;;;;;;;;5061417;28;20028;-85
2023/10/09 06:42:09;;;;;;;15.88;10.60;;;;;;;;;;5063989;28;20153;-87
2023/10/09 06:44:53;;;;;;;18.40;10.85;;;;;;;;;;5066545;28;20468;-81
2023/10/09 06:47:18;;;;;;;19.00;10.57;;;;;;;;;;5055863;28;20378;-78
2023/10/09 06:50:12;;;;;;;16.95;10.45;;;;;;;;;;5044599;28;20032;-77
2023/10/09 06:52:57;;;;;;;16.38;10.15;;;;;;;;;;5062969;28;20119;-78
2023/10/09 06:55:19;;;;;;;14.35;9.80;;;;;;;;;;5064327;28;20036;-77
2023/10/09 06:57:48;;;;;;;18.98;10.52;;;;;;;;;;5052177;28;20444;-78
2023/10/09 07:00:54;;;;;;;16.73;10.35;;;;;;;;;;5063133;28;21042;-77
2023/10/09 07:03:11;;;;;;;21.35;11.27;;;;;;;;;;5059871;28;20068;-77
2023/10/09 07:06:00;;;;;;;19.35;9.93;;;;;;;;;;5059250;28;20028;-77
2023/10/09 07:08:31;;;;;;;15.27;9.77;;;;;;;;;;5068227;28;20078;-77
2023/10/09 07:11:20;;;;;;;17.63;9.75;;;;;;;;;;5064249;28;20025;-80
2023/10/09 07:13:52;;;;;;;16.35;9.85;;;;;;;;;;5065524;28;20066;-77
2023/10/09 07:16:38;;;;;;;18.40;9.98;;;;;;;;;;5045379;28;20388;-78
2023/10/09 07:19:24;;;;;;;14.90;10.10;;;;;;;;;;5048126;28;20468;-78
2023/10/09 07:21:54;;;;;;;20.08;10.35;;;;;;;;;;5053283;28;20107;-77
2023/10/09 07:24:37;;;;;;;20.60;10.35;;;;;;;;;;5068915;28;20491;-77
2023/10/09 07:27:12;;;;;;;16.85;10.77;;;;;;;;;;5046168;28;20024;-78
2023/10/09 07:29:47;;;;;;;17.73;10.77;;;;;;;;;;5060318;28;20039;-77
2023/10/09 07:32:19;;;;;;;16.17;9.52;;;;;;;;;;5066085;28;20178;-77
2023/10/09 07:34:54;;;;;;;17.65;10.18;;;;;;;;;;5060695;28;20109;-77
2023/10/09 07:37:22;;;;;;;18.58;10.88;;;;;;;;;;5066695;28;20476;-79
2023/10/09 07:40:06;;;;;;;18.85;10.43;;;;;;;;;;5068108;28;20767;-81
2023/10/09 07:50:24;;;;;;;16.15;11.00;;;;;;;;;;5066210;28;20779;-80
2023/10/09 07:52:49;;;;;;;17.50;10.75;;;;;;;;;;5053065;28;20037;-80
2023/10/09 07:55:39;;;;;;;18.05;10.75;;;;;;;;;;5046545;28;20029;-80
2023/10/09 07:58:10;;;;;;;19.23;10.82;;;;;;;;;;5063488;28;20128;-80
2023/10/09 08:00:36;;;;;;;20.40;11.48;;;;;;;;;;5068787;28;20036;-80
2023/10/09 08:03:02;;;;;;;20.45;10.82;;;;;;;;;;5051299;28;20055;-80
2023/10/09 08:05:33;;;;;;;16.88;10.77;;;;;;;;;;5050631;28;20077;-80
2023/10/09 08:11:41;;;;;;;17.85;10.73;;;;;;;;;;5067322;28;20089;-80
2023/10/09 08:16:21;;;;;;;20.60;11.15;;;;;;;;;;5072369;28;20034;-80
2023/10/09 08:18:51;;;;;;;18.67;10.95;;;;;;;;;;5066004;28;20036;-80
2023/10/09 08:23:48;;;;;;;18.67;11.82;;;;;;;;;;5062519;28;20033;-80
2023/10/09 08:26:16;;;;;;;21.30;11.65;;;;;;;;;;5053459;28;20545;-80
2023/10/09 08:28:44;;;;;;;19.00;12.23;;;;;;;;;;5053304;28;20024;-80
2023/10/09 08:31:19;;;;;;;22.52;12.18;;;;;;;;;;5066658;28;20078;-81
2023/10/09 08:33:58;;;;;;;18.67;11.82;;;;;;;;;;5065442;28;20369;-80
2023/10/09 08:36:36;;;;;;;20.30;11.70;;;;;;;;;;5050415;28;20056;-80
2023/10/09 08:39:17;;;;;;;18.88;11.32;;;;;;;;;;5063748;28;20134;-80
2023/10/09 08:41:43;;;;;;;21.90;11.38;;;;;;;;;;5068337;28;20032;-80
2023/10/09 08:44:12;;;;;;;21.13;11.40;;;;;;;;;;5044544;28;22037;-80
2023/10/09 08:46:39;;;;;;;22.42;12.00;;;;;;;;;;5051691;28;20024;-80
2023/10/09 08:49:08;;;;;;;21.60;12.93;;;;;;;;;;5054437;28;20028;-80
2023/10/09 08:51:35;;;;;;;22.00;13.20;;;;;;;;;;5069542;28;20028;-81
2023/10/09 08:54:00;;;;;;;21.45;13.15;;;;;;;;;;5064758;28;20435;-81
2023/10/09 08:56:26;;;;;;;23.92;14.20;;;;;;;;;;5062307;28;20024;-81
2023/10/09 08:58:52;;;;;;;22.95;13.20;;;;;;;;;;5065407;28;20028;-81
2023/10/09 09:01:21;;;;;;;24.58;13.20;;;;;;;;;;5066016;28;20021;-77
2023/10/09 09:03:50;;;;;;;21.15;13.60;;;;;;;;;;5064748;28;20033;-77
2023/10/09 09:06:17;;;;;;;21.83;13.38;;;;;;;;;;5050475;28;20055;-78
2023/10/09 09:08:44;;;;;;;21.42;12.98;;;;;;;;;;5066675;28;20036;-77
2023/10/09 09:11:12;;;;;;;21.83;14.25;;;;;;;;;;5046405;28;20392;-78
2023/10/09 09:13:48;;;;;;;21.23;14.07;;;;;;;;;;5063971;28;20032;-77
2023/10/09 09:16:18;;;;;;;21.25;12.15;;;;;;;;;;5061966;28;20111;-78
2023/10/09 09:19:00;;;;;;;20.27;12.05;;;;;;;;;;5053155;28;20528;-78
2023/10/09 09:21:27;;;;;;;17.70;12.45;;;;;;;;;;5045401;28;20025;-78
2023/10/09 09:24:05;;;;;;;22.20;12.80;;;;;;;;;;5047012;28;20050;-77
2023/10/09 09:26:44;;;;;;;20.45;12.38;;;;;;;;;;5048140;28;20086;-77
2023/10/09 09:29:10;;;;;;;20.17;11.60;;;;;;;;;;5056523;28;20492;-78
2023/10/09 09:31:38;;;;;;;20.17;12.88;;;;;;;;;;5048380;28;20024;-78
2023/10/09 09:34:13;;;;;;;18.30;12.32;;;;;;;;;;5064196;28;20039;-77
2023/10/09 09:36:53;;;;;;;22.33;12.45;;;;;;;;;;5049196;28;20488;-78
2023/10/09 09:39:26;;;;;;;21.20;12.75;;;;;;;;;;5067928;28;20028;-77
2023/10/09 09:42:07;;;;;;;22.98;13.93;;;;;;;;;;5043233;28;20035;-78
2023/10/09 09:44:43;;;;;;;19.83;12.80;;;;;;;;;;5048230;28;20071;-80
2023/10/09 09:47:12;;;;;;;20.73;11.70;;;;;;;;;;5048710;28;20467;-79
2023/10/09 09:49:44;;;;;;;17.73;11.98;;;;;;;;;;5066910;28;20024;-77
2023/10/09 09:52:10;;;;;;;22.60;12.10;;;;;;;;;;5046823;28;20050;-79
2023/10/09 09:54:37;;;;;;;20.05;12.27;;;;;;;;;;5063581;28;20028;-78
2023/10/09 09:57:08;;;;;;;21.52;12.55;;;;;;;;;;5048799;28;20024;-79
2023/10/09 09:59:40;;;;;;;19.73;12.35;;;;;;;;;;5065983;28;20036;-81
2023/10/09 10:02:07;;;;;;;24.10;12.05;;;;;;;;;;5048913;28;20024;-80
2023/10/09 10:04:37;;;;;;;20.77;12.98;;;;;;;;;;5051721;28;20024;-80
2023/10/09 10:07:09;;;;;;;19.45;12.15;;;;;;;;;;5057152;28;20033;-80
2023/10/09 10:09:38;;;;;;;22.08;13.10;;;;;;;;;;5060998;28;20031;-78
2023/10/09 10:12:09;;;;;;;23.38;12.93;;;;;;;;;;5058356;28;20482;-78
2023/10/09 10:18:00;;;;;;;19.42;12.30;;;;;;;;;;5062570;28;20449;-78
2023/10/09 10:20:26;;;;;;;23.92;12.82;;;;;;;;;;5065591;28;20104;-78
2023/10/09 10:23:19;;;;;;;20.83;11.93;;;;;;;;;;5064022;28;20130;-77
2023/10/09 10:25:49;;;;;;;25.75;12.73;;;;;;;;;;5043009;28;20487;-78
2023/10/09 10:28:42;;;;;;;19.48;10.95;;;;;;;;;;5048319;28;20119;-79
2023/10/09 10:31:08;;;;;;;18.80;10.93;;;;;;;;;;5052867;28;20605;-78
2023/10/09 10:34:06;;;;;;;17.58;10.48;;;;;;;;;;5067766;28;20035;-78
2023/10/09 10:36:34;;;;;;;20.52;10.52;;;;;;;;;;5065658;28;20019;-78
2023/10/09 10:41:56;;;;;;;15.95;9.80;;;;;;;;;;5070254;28;20472;-78
2023/10/09 10:44:36;;;;;;;17.40;10.05;;;;;;;;;;5051269;28;20066;-78
2023/10/09 10:47:15;;;;;;;16.98;10.05;;;;;;;;;;5049940;28;20028;-80
2023/10/09 10:49:43;;;;;;;19.75;10.48;;;;;;;;;;5040367;28;20021;-78
2023/10/09 10:52:20;;;;;;;16.15;10.23;;;;;;;;;;5044822;28;20017;-79
2023/10/09 10:54:45;;;;;;;22.23;10.48;;;;;;;;;;5065968;28;20053;-78
2023/10/09 10:57:37;;;;;;;17.40;11.10;;;;;;;;;;5066215;28;20133;-80
2023/10/09 11:03:13;;;;;;;18.05;9.80;;;;;;;;;;5016407;28;20071;-78
2023/10/09 11:05:41;;;;;;;17.05;9.43;;;;;;;;;;5060723;28;20043;-79
2023/10/09 11:08:10;;;;;;;18.23;9.70;;;;;;;;;;5050621;28;20078;-78
2023/10/09 11:10:36;;;;;;;17.35;8.55;;;;;;;;;;5069182;28;20033;-78
2023/10/09 11:15:47;;;;;;;15.82;8.90;;;;;;;;;;5067833;28;20066;-78
2023/10/09 11:18:20;;;;;;;16.83;8.70;;;;;;;;;;5046018;28;20090;-78
2023/10/09 11:23:38;;;;;;;16.80;9.30;;;;;;;;;;5070579;28;20035;-78
2023/10/09 11:32:05;;;;;;;14.60;8.90;;;;;;;;;;5066375;28;20028;-79
2023/10/09 11:34:34;;;;;;;16.15;9.10;;;;;;;;;;5040040;28;20037;-78
2023/10/09 11:37:12;;;;;;;17.00;9.25;;;;;;;;;;5051901;28;20025;-78
2023/10/09 11:39:50;;;;;;;17.42;9.45;;;;;;;;;;5051177;28;20413;-79
2023/10/09 11:45:19;;;;;;;14.80;9.38;;;;;;;;;;5069832;28;20551;-79
2023/10/09 11:48:00;;;;;;;14.43;9.05;;;;;;;;;;5050283;28;20374;-79
2023/10/09 11:50:53;;;;;;;15.48;9.10;;;;;;;;;;5064561;28;20127;-79
2023/10/09 11:53:33;;;;;;;14.65;8.70;;;;;;;;;;5047905;28;20416;-79
2023/10/09 11:55:59;;;;;;;17.13;9.10;;;;;;;;;;5050562;28;20024;-78
2023/10/09 11:58:24;;;;;;;18.67;8.95;;;;;;;;;;5070292;28;20472;-78
2023/10/09 12:00:51;;;;;;;15.60;9.10;;;;;;;;;;5044227;28;20079;-79
2023/10/09 12:03:16;;;;;;;15.85;8.88;;;;;;;;;;5065339;28;20029;-79
2023/10/09 12:05:44;;;;;;;15.82;8.88;;;;;;;;;;5069716;28;20396;-78
2023/10/09 12:08:10;;;;;;;13.43;8.70;;;;;;;;;;5061045;28;20021;-79
2023/10/09 12:10:38;;;;;;;18.38;9.70;;;;;;;;;;5068049;28;20990;-78
2023/10/09 12:13:04;;;;;;;14.52;8.75;;;;;;;;;;5047970;28;20035;-78
2023/10/09 12:15:37;;;;;;;13.75;8.73;;;;;;;;;;5048290;28;20477;-78
2023/10/09 12:18:06;;;;;;;16.50;8.93;;;;;;;;;;5061238;28;20021;-79
2023/10/09 12:20:32;;;;;;;15.65;9.07;;;;;;;;;;5046514;28;20029;-79
2023/10/09 12:23:04;;;;;;;15.38;8.40;;;;;;;;;;5065801;28;20039;-78
2023/10/09 12:25:31;;;;;;;16.93;8.60;;;;;;;;;;5060581;28;20550;-79
2023/10/09 12:28:03;;;;;;;14.95;8.02;;;;;;;;;;5061448;28;20315;-78
2023/10/09 12:30:29;;;;;;;13.90;8.37;;;;;;;;;;5063041;28;20033;-81
2023/10/09 12:32:57;;;;;;;12.90;7.22;;;;;;;;;;5046682;28;20028;-82
2023/10/09 12:35:25;;;;;;;11.68;6.85;;;;;;;;;;5069130;28;20016;-81
2023/10/09 12:37:54;;;;;;;13.88;6.68;;;;;;;;;;5060797;28;20469;-81
2023/10/09 12:40:23;;;;;;;11.75;6.20;;;;;;;;;;5048173;28;20025;-82
2023/10/09 12:42:50;;;;;;;12.73;7.68;;;;;;;;;;5069472;28;20039;-78
2023/10/09 12:45:17;;;;;;;13.00;6.47;;;;;;;;;;5048959;28;20028;-79
2023/10/09 12:47:43;;;;;;;13.98;6.95;;;;;;;;;;5044690;28;20032;-80
2023/10/09 12:50:13;;;;;;;12.60;5.65;;;;;;;;;;5048344;28;20027;-79
2023/10/09 12:52:39;;;;;;;12.13;6.03;;;;;;;;;;5064471;28;20024;-78
2023/10/09 12:55:09;;;;;;;10.45;6.18;;;;;;;;;;5065081;28;20143;-79
2023/10/09 12:57:36;;;;;;;9.88;5.68;;;;;;;;;;5048770;28;20028;-78
2023/10/09 13:00:10;;;;;;;9.73;5.57;;;;;;;;;;5064204;28;20460;-78
2023/10/09 13:02:36;;;;;;;10.73;5.53;;;;;;;;;;5049266;28;20112;-78
2023/10/09 13:05:04;;;;;;;11.85;5.85;;;;;;;;;;5044519;28;20119;-79
2023/10/09 13:07:30;;;;;;;12.57;5.82;;;;;;;;;;5064823;28;20016;-78
2023/10/09 13:10:13;;;;;;;10.23;5.57;;;;;;;;;;5038586;28;20021;-81
2023/10/09 13:12:41;;;;;;;11.82;5.65;;;;;;;;;;5059021;28;20035;-82
2023/10/09 13:15:09;;;;;;;12.52;6.20;;;;;;;;;;5060106;28;20381;-79
2023/10/09 13:17:36;;;;;;;14.43;5.60;;;;;;;;;;5059313;28;20035;-78
2023/10/09 13:20:15;;;;;;;11.13;5.82;;;;;;;;;;5038609;28;20033;-88
2023/10/09 13:22:46;;;;;;;12.27;5.70;;;;;;;;;;5051522;28;20502;-87
2023/10/09 13:25:16;;;;;;;10.25;5.95;;;;;;;;;;5043344;28;20364;-87
2023/10/09 13:27:50;;;;;;;11.50;5.63;;;;;;;;;;5042022;28;20032;-87
2023/10/09 13:30:21;;;;;;;11.35;6.10;;;;;;;;;;5058960;28;20550;-82
2023/10/09 13:32:49;;;;;;;10.73;5.68;;;;;;;;;;5066297;28;20029;-86
2023/10/09 13:35:17;;;;;;;14.07;5.70;;;;;;;;;;5043759;28;20024;-87
2023/10/09 13:37:44;;;;;;;14.32;5.65;;;;;;;;;;5041949;28;20392;-86
2023/10/09 13:40:11;;;;;;;10.18;5.35;;;;;;;;;;5064949;28;20473;-80
2023/10/09 13:42:37;;;;;;;10.38;5.07;;;;;;;;;;5041141;28;20500;-79
2023/10/09 13:45:15;;;;;;;10.02;5.10;;;;;;;;;;5055686;28;20025;-80
2023/10/09 13:47:44;;;;;;;13.25;5.80;;;;;;;;;;5064160;28;20025;-78
2023/10/09 13:50:09;;;;;;;13.73;5.15;;;;;;;;;;5055113;28;20016;-80
2023/10/09 13:52:39;;;;;;;9.07;5.15;;;;;;;;;;5038897;28;20098;-81
2023/10/09 13:55:15;;;;;;;11.02;5.22;;;;;;;;;;5070963;28;20511;-81
2023/10/09 13:57:43;;;;;;;11.60;5.43;;;;;;;;;;5040497;28;20017;-88
2023/10/09 14:00:11;;;;;;;9.35;4.88;;;;;;;;;;5062081;28;20492;-87
2023/10/09 14:02:37;;;;;;;13.77;4.97;;;;;;;;;;5064210;28;20439;-87
2023/10/09 14:05:03;;;;;;;11.27;4.90;;;;;;;;;;5048735;28;20036;-86
2023/10/09 14:07:29;;;;;;;16.42;5.28;;;;;;;;;;5062679;28;20484;-87
2023/10/09 14:12:21;;;;;;;9.80;4.97;;;;;;;;;;5059087;28;20524;-87
2023/10/09 14:14:47;;;;;;;11.13;5.38;;;;;;;;;;5047622;28;20098;-84
2023/10/09 14:17:23;;;;;;;13.73;5.15;;;;;;;;;;5060782;28;21417;-87
2023/10/09 14:19:51;;;;;;;11.65;4.72;;;;;;;;;;5047999;28;20016;-88
2023/10/09 14:22:27;;;;;;;9.10;4.70;;;;;;;;;;5040847;28;20055;-87
2023/10/09 14:24:57;;;;;;;10.25;5.40;;;;;;;;;;5056914;28;20048;-86
2023/10/09 14:27:29;;;;;;;11.38;5.03;;;;;;;;;;5065371;28;20640;-87
2023/10/09 14:29:56;;;;;;;13.87;5.60;;;;;;;;;;5064325;28;20103;-88
2023/10/09 14:32:28;;;;;;;10.52;4.53;;;;;;;;;;5061089;28;21118;-87
2023/10/09 14:34:54;;;;;;;12.25;4.85;;;;;;;;;;5059102;28;20079;-88
2023/10/09 14:37:20;;;;;;;11.73;5.35;;;;;;;;;;5044996;28;20539;-87
2023/10/09 14:39:49;;;;;;;12.05;5.22;;;;;;;;;;5064664;28;20444;-87
2023/10/09 14:42:15;;;;;;;11.68;4.85;;;;;;;;;;5047455;28;20036;-88
2023/10/09 14:44:41;;;;;;;13.77;5.70;;;;;;;;;;5047264;28;20094;-87
2023/10/09 14:47:07;;;;;;;10.57;4.72;;;;;;;;;;5045000;28;20530;-88
2023/10/09 14:49:37;;;;;;;11.20;5.45;;;;;;;;;;5062183;28;20032;-88
2023/10/09 14:52:03;;;;;;;12.82;5.22;;;;;;;;;;5039797;28;20032;-89
2023/10/09 14:54:28;;;;;;;12.23;5.35;;;;;;;;;;5065222;28;20495;-86
2023/10/09 14:56:54;;;;;;;11.18;5.03;;;;;;;;;;5050844;28;20116;-88
2023/10/09 14:59:22;;;;;;;12.68;5.22;;;;;;;;;;5054620;28;20115;-79
2023/10/09 15:01:49;;;;;;;10.65;5.30;;;;;;;;;;5046940;28;20036;-79
2023/10/09 15:04:15;;;;;;;9.45;5.30;;;;;;;;;;5067271;28;20032;-79
2023/10/09 15:06:41;;;;;;;12.52;5.40;;;;;;;;;;5048226;28;20078;-79
2023/10/09 15:09:21;;;;;;;11.95;5.20;;;;;;;;;;5041433;28;20115;-78
2023/10/09 15:11:48;;;;;;;12.18;5.13;;;;;;;;;;5071925;28;20052;-78
2023/10/09 15:14:13;;;;;;;10.35;4.80;;;;;;;;;;5047524;28;20021;-79
2023/10/09 15:16:39;;;;;;;8.73;4.68;;;;;;;;;;5066134;28;20451;-79
2023/10/09 15:19:04;;;;;;;11.07;5.22;;;;;;;;;;5066769;28;20029;-78
2023/10/09 15:21:32;;;;;;;10.30;5.20;;;;;;;;;;5059956;28;20043;-78
2023/10/09 15:23:58;;;;;;;11.45;5.47;;;;;;;;;;5049768;28;20464;-78
2023/10/09 15:26:24;;;;;;;10.75;5.43;;;;;;;;;;5070119;28;20047;-78
2023/10/09 15:28:51;;;;;;;12.27;5.63;;;;;;;;;;5054351;28;20081;-79
2023/10/09 15:31:18;;;;;;;12.05;5.57;;;;;;;;;;5045360;28;20480;-78
2023/10/09 15:33:44;;;;;;;13.48;5.07;;;;;;;;;;5066249;28;20020;-78
2023/10/09 15:36:14;;;;;;;11.05;5.30;;;;;;;;;;5046380;28;20021;-79
2023/10/09 15:38:39;;;;;;;12.02;5.38;;;;;;;;;;5047808;28;20519;-80
2023/10/09 15:41:06;;;;;;;13.48;5.40;;;;;;;;;;5047072;28;20118;-78
2023/10/09 15:43:33;;;;;;;12.32;5.07;;;;;;;;;;5043905;28;20471;-78
2023/10/09 15:45:59;;;;;;;12.05;5.65;;;;;;;;;;5044141;28;20024;-79
2023/10/09 15:48:24;;;;;;;11.07;5.18;;;;;;;;;;5062768;28;20028;-78
2023/10/09 15:50:51;;;;;;;11.15;5.72;;;;;;;;;;5045110;28;20135;-81
2023/10/09 15:53:17;;;;;;;10.82;5.43;;;;;;;;;;5045266;28;20056;-81
2023/10/09 15:55:46;;;;;;;11.85;5.15;;;;;;;;;;5059465;28;20085;-81
2023/10/09 15:58:11;;;;;;;12.90;5.78;;;;;;;;;;5062712;28;20060;-81
2023/10/09 16:00:37;;;;;;;12.90;5.88;;;;;;;;;;5059191;28;20533;-80
2023/10/09 16:03:04;;;;;;;9.40;5.32;;;;;;;;;;5061279;28;20474;-80
2023/10/09 16:05:30;;;;;;;10.48;5.30;;;;;;;;;;5062270;28;20101;-80
2023/10/09 16:08:00;;;;;;;10.25;5.60;;;;;;;;;;5062877;28;20032;-80
2023/10/09 16:10:25;;;;;;;12.65;5.68;;;;;;;;;;5045440;28;20121;-85
2023/10/09 16:12:53;;;;;;;13.77;5.35;;;;;;;;;;5047531;28;20052;-87
2023/10/09 16:15:19;;;;;;;11.35;5.68;;;;;;;;;;5043846;28;20115;-87
2023/10/09 16:17:48;;;;;;;9.63;5.47;;;;;;;;;;5064051;28;20513;-87
2023/10/09 16:20:16;;;;;;;13.45;5.63;;;;;;;;;;5061985;28;20107;-87
2023/10/09 16:22:45;;;;;;;13.88;5.82;;;;;;;;;;5063988;28;20036;-88
2023/10/09 16:25:11;;;;;;;13.70;6.40;;;;;;;;;;5052523;28;20024;-86
2023/10/09 16:27:39;;;;;;;10.75;5.35;;;;;;;;;;5030070;28;20031;-86
2023/10/09 16:30:05;;;;;;;14.13;5.93;;;;;;;;;;5044169;28;20402;-85
2023/10/09 16:32:31;;;;;;;12.43;5.57;;;;;;;;;;5042459;28;20028;-85
2023/10/09 16:34:58;;;;;;;15.23;5.70;;;;;;;;;;5056906;28;20555;-86
2023/10/09 16:37:24;;;;;;;10.85;5.60;;;;;;;;;;5064070;28;20643;-85